Bookmark and Share
Track history (hours):
 

Arklow Wind

Last reported at 2014-Apr-23 08:29 UTC. Time now 2014-Apr-24 13:58 UTC.
Position N 47°08' W 002°27'.

Length 136 m; draft 5.1 m.

Type: Cargo ship. MMSI: 250506000.

NotesDate/timePositionNaut miles runAvg speedWind from/ knotsBaromVisibWave heightAir tempDewpointWater temp
2014-Apr-23 08:29N 47°08' W 002°27'  
2014-Apr-19 00:32N 50°23' W 001°56'1111.3
2014-Apr-18 23:34N 50°24' W 001°39'1010.2
2014-Apr-18 22:34N 50°26' W 001°23'9 9.2
2014-Apr-18 21:34N 50°28' W 001°09'10 9.6
2014-Apr-18 20:33N 50°29' W 000°54'1211.9
2014-Apr-18 19:33N 50°29' W 000°35'1413.7
2014-Apr-18 18:33N 50°29' W 000°14'1514.6
2014-Apr-18 17:33N 50°33' E 000°08'1514.8
2014-Apr-18 16:34N 50°38' E 000°31'1413.9
2014-Apr-18 15:33N 50°45' E 000°49'1312.7
2014-Apr-18 14:33N 50°53' E 001°05'1211.3
2014-Apr-18 13:32N 51°00' E 001°19'1111.8
2014-Apr-18 12:34N 51°06' E 001°35'1110.8
2014-Apr-18 11:33N 51°04' E 001°52'0 0.1
2014-Apr-18 10:26N 51°04' E 001°52'0 0.0
2014-Apr-18 08:32N 51°04' E 001°52'0 0.0
2014-Apr-18 07:32N 51°04' E 001°52'0 0.0
2014-Apr-18 06:32N 51°04' E 001°52'0 0.0
2014-Apr-18 05:29N 51°04' E 001°52'0 0.1
2014-Apr-18 04:32N 51°04' E 001°52'0 0.1
2014-Apr-18 03:08N 51°04' E 001°52'0 0.0
2014-Apr-18 02:14N 51°04' E 001°52'0 0.0
2014-Apr-18 01:23N 51°04' E 001°52'0 0.0
2014-Apr-18 00:26N 51°04' E 001°52'0 0.1
2014-Apr-17 23:20N 51°04' E 001°52'0 0.2
2014-Apr-17 22:32N 51°04' E 001°52'0 0.0
2014-Apr-17 21:19N 51°04' E 001°52'0 0.0
2014-Apr-17 20:33N 51°04' E 001°52'0 0.1
2014-Apr-17 19:33N 51°04' E 001°52'10 9.9
2014-Apr-17 18:33N 51°03' E 002°07'4 2.9
2014-Apr-17 17:19N 51°00' E 002°11'0 0.0
2014-Apr-17 16:28N 51°00' E 002°11'0 0.0
2014-Apr-17 15:28N 51°00' E 002°11'0 0.0
2014-Apr-17 14:25N 51°00' E 002°11'0 0.0
2014-Apr-17 13:20N 51°00' E 002°11'0 0.0
2014-Apr-17 10:22N 51°00' E 002°11'0 0.0
2014-Apr-17 09:31N 51°00' E 002°11'0 0.0
2014-Apr-17 08:28N 51°00' E 002°11'0 0.0
2014-Apr-17 07:22N 51°00' E 002°11'0 0.0
2014-Apr-17 06:31N 51°00' E 002°11'0 0.0
2014-Apr-17 05:31N 51°00' E 002°11'0 0.0
2014-Apr-17 04:34N 51°00' E 002°11'0 0.0
2014-Apr-17 03:31N 51°00' E 002°11'0 0.0
2014-Apr-17 02:21N 51°00' E 002°11'0 0.0
2014-Apr-17 01:33N 51°00' E 002°11'0 0.0
2014-Apr-16 23:33N 51°00' E 002°11'0 0.0
2014-Apr-16 22:30N 51°00' E 002°11'0 0.0
2014-Apr-16 21:30N 51°00' E 002°11'0 0.0
2014-Apr-16 20:33N 51°00' E 002°11'0 0.0
2014-Apr-16 19:30N 51°00' E 002°11'0 0.0
2014-Apr-16 18:24N 51°00' E 002°11'0 0.0
2014-Apr-16 17:33N 51°00' E 002°11'0 0.0
2014-Apr-16 16:12N 51°00' E 002°11'0 0.0
2014-Apr-16 15:33N 51°00' E 002°11'0 0.0
2014-Apr-16 14:18N 51°00' E 002°11'0 0.0
2014-Apr-16 13:25N 51°00' E 002°11'0 0.0
2014-Apr-16 12:33N 51°00' E 002°11'0 0.0
2014-Apr-16 11:27N 51°00' E 002°11'0 0.0
2014-Apr-16 10:31N 51°00' E 002°11'0 0.0
2014-Apr-16 09:30N 51°00' E 002°11'0 0.0
2014-Apr-16 08:27N 51°00' E 002°11'0 0.0
2014-Apr-16 07:33N 51°00' E 002°11'0 0.0
2014-Apr-16 06:33N 51°00' E 002°11'0 0.0
2014-Apr-16 05:27N 51°00' E 002°11'0 0.0
2014-Apr-16 04:33N 51°00' E 002°11'0 0.0
2014-Apr-16 03:33N 51°00' E 002°11'0 0.0
2014-Apr-16 02:30N 51°00' E 002°11'0 0.0
2014-Apr-16 01:24N 51°00' E 002°11'0 0.0
2014-Apr-16 00:33N 51°00' E 002°11'0 0.0
2014-Apr-15 23:33N 51°00' E 002°11'0 0.0
2014-Apr-15 22:33N 51°00' E 002°11'0 0.0
2014-Apr-15 21:33N 51°00' E 002°11'0 0.0
2014-Apr-15 20:30N 51°00' E 002°11'0 0.0
2014-Apr-15 19:33N 51°00' E 002°11'0 0.0
2014-Apr-15 18:30N 51°00' E 002°11'0 0.0
2014-Apr-15 17:27N 51°00' E 002°11'0 0.0
2014-Apr-15 16:33N 51°00' E 002°11'0 0.0
2014-Apr-15 15:33N 51°00' E 002°11'0 0.0
2014-Apr-15 14:30N 51°00' E 002°11'0 0.0
2014-Apr-15 12:33N 51°00' E 002°11'0 0.0
2014-Apr-15 11:30N 51°00' E 002°11'0 0.0
2014-Apr-15 10:33N 51°00' E 002°11'0 0.0
2014-Apr-15 09:30N 51°00' E 002°11'0 0.0
2014-Apr-15 08:33N 51°00' E 002°11'0 0.0
2014-Apr-15 07:33N 51°00' E 002°11'5 4.8
2014-Apr-15 06:34N 51°03' E 002°04'67 9.6
2014-Apr-14 23:34N 50°27' E 000°36'6112.3
2014-Apr-14 18:34N 50°29' W 001°01'1515.2
2014-Apr-14 17:34N 50°26' W 001°24'1414.2
2014-Apr-14 16:34N 50°23' W 001°46'28610.6
2014-Apr-13 13:32N 51°07' W 009°13'1212.7
2014-Apr-13 12:33N 51°12' W 009°32'1212.2
2014-Apr-13 11:33N 51°17' W 009°49'1211.8
2014-Apr-13 10:33N 51°24' W 010°05'  

Dump ship's entire track history

sailing weather and tide predictions

Arklow Wind — EIKZ — position and weather